Welcome to Northern Hawkes Bay. New Zealand.
PWS Header
      nz Flag



Hit Counter


W3C Valid W3C Valid logo


    Wairoa

Select any of the Stations below to visit their websites.










Historic Data from Weather Underground
Select the location of interest below. Wairoa is the default. Please have patience, this Data is slow to load in.
Northern Hawkes Bay Historical Data
Daily Summary for January 12, 2019 Units:  Both    English   Metric
« Previous Day
Next Day »
Daily Weekly Monthly Yearly Custom
  High: Low: Average:
Temperature: 72.7 °F /  22.6 °C 59 °F /  15.0 °C 66.9 °F /  19.4 °C
Dew Point: 66 °F /  18.9 °C 57.6 °F /  14.2 °C 61.2 °F /  16.2 °C
Humidity: 99% 62% 83%
Wind Speed: 11.4mph /  18.3km/h - 4.5mph /  7.3km/h
Wind Gust: 17.4mph /  28.0km/h - -
Wind- - South
Pressure: 30.6 in /  1035.6 hPa 30.2 in /  1023.2 hPa -
Precipitation: 0.37 in /  9.4 mm    
Historical Graphs
 
 
Tabular Data for January 12, 2019
Time Temperature Dew Point Pressure Wind Wind Speed Wind Gust Humidity Rainfall Rate (Hourly) solar
00:04 71.6 °F /  22.0 °C 61.7 °F /  16.5 °C 30.5in /  1032.2hPa West 3.8mph /  6.1km/h 8.3mph /  13.4km/h 71% 0in /  0.0mm 0.00 W/m2
00:09 71.6 °F /  22.0 °C 62.1 °F /  16.7 °C 30.5in /  1032.2hPa SW 4.5mph /  7.2km/h 8.3mph /  13.4km/h 72% 0in /  0.0mm 0.00 W/m2
00:14 71.6 °F /  22.0 °C 61.7 °F /  16.5 °C 30.5in /  1032.2hPa WNW 6mph /  9.7km/h 9.8mph /  15.8km/h 71% 0in /  0.0mm 0.00 W/m2
00:19 71.6 °F /  22.0 °C 62.1 °F /  16.7 °C 30.5in /  1032.1hPa WNW 4.5mph /  7.2km/h 9.8mph /  15.8km/h 72% 0in /  0.0mm 0.00 W/m2
00:24 71.4 °F /  21.9 °C 62.8 °F /  17.1 °C 30.5in /  1032.2hPa West 4.5mph /  7.2km/h 10.7mph /  17.2km/h 74% 0in /  0.0mm 0.00 W/m2
00:29 71.4 °F /  21.9 °C 62.8 °F /  17.1 °C 30.5in /  1032.2hPa WSW 6.9mph /  11.1km/h 10.7mph /  17.2km/h 74% 0in /  0.0mm 0.00 W/m2
00:34 71.4 °F /  21.9 °C 62.8 °F /  17.1 °C 30.5in /  1032.3hPa West 7.6mph /  12.2km/h 14.5mph /  23.3km/h 74% 0in /  0.0mm 0.00 W/m2
00:39 71.2 °F /  21.8 °C 61.9 °F /  16.6 °C 30.5in /  1032.1hPa SW 6mph /  9.7km/h 14.5mph /  23.3km/h 72% 0in /  0.0mm 0.00 W/m2
00:44 71.2 °F /  21.8 °C 62.2 °F /  16.8 °C 30.5in /  1032.3hPa SW 4.5mph /  7.2km/h 14.5mph /  23.3km/h 73% 0in /  0.0mm 0.00 W/m2
00:49 71.2 °F /  21.8 °C 62.2 °F /  16.8 °C 30.5in /  1032.3hPa SW 6mph /  9.7km/h 12.1mph /  19.5km/h 73% 0in /  0.0mm 0.00 W/m2
00:54 71.1 °F /  21.7 °C 62.4 °F /  16.9 °C 30.5in /  1032.3hPa NW 5.4mph /  8.7km/h 12.1mph /  19.5km/h 74% 0in /  0.0mm 0.00 W/m2
00:59 71.1 °F /  21.7 °C 62.4 °F /  16.9 °C 30.5in /  1032.4hPa NW 5.4mph /  8.7km/h 11.4mph /  18.3km/h 74% 0in /  0.0mm 0.00 W/m2
01:04 71.1 °F /  21.7 °C 62.4 °F /  16.9 °C 30.5in /  1032.3hPa West 5.4mph /  8.7km/h 9.2mph /  14.8km/h 74% 0in /  0.0mm 0.00 W/m2
01:09 71.1 °F /  21.7 °C 62.8 °F /  17.1 °C 30.5in /  1032.3hPa WSW 6mph /  9.7km/h 9.8mph /  15.8km/h 75% 0in /  0.0mm 0.00 W/m2
01:13 71.1 °F /  21.7 °C 62.8 °F /  17.1 °C 30.5in /  1032.3hPa WSW 7.6mph /  12.2km/h 10.7mph /  17.2km/h 75% 0in /  0.0mm 0.00 W/m2
01:34 70.9 °F /  21.6 °C 62.2 °F /  16.8 °C 30.5in /  1032.4hPa NW 6.9mph /  11.1km/h 13.6mph /  21.9km/h 74% 0in /  0.0mm 0.00 W/m2
01:39 70.7 °F /  21.5 °C 61 °F /  16.1 °C 30.5in /  1032.4hPa NW 3.8mph /  6.1km/h 10.7mph /  17.2km/h 71% 0in /  0.0mm 0.00 W/m2
01:44 70.9 °F /  21.6 °C 61.3 °F /  16.3 °C 30.5in /  1032.3hPa West 5.4mph /  8.7km/h 10.7mph /  17.2km/h 72% 0in /  0.0mm 0.00 W/m2
01:49 70.7 °F /  21.5 °C 61.5 °F /  16.4 °C 30.5in /  1032.4hPa WNW 6.9mph /  11.1km/h 9.8mph /  15.8km/h 73% 0in /  0.0mm 0.00 W/m2
01:54 70.7 °F /  21.5 °C 61.5 °F /  16.4 °C 30.5in /  1032.3hPa NW 7.6mph /  12.2km/h 9.8mph /  15.8km/h 73% 0in /  0.0mm 0.00 W/m2
01:59 70.7 °F /  21.5 °C 62.1 °F /  16.7 °C 30.5in /  1032.2hPa WSW 4.5mph /  7.2km/h 9.8mph /  15.8km/h 74% 0in /  0.0mm 0.00 W/m2
02:04 70.5 °F /  21.4 °C 61.9 °F /  16.6 °C 30.5in /  1032.5hPa WSW 4.5mph /  7.2km/h 10.7mph /  17.2km/h 74% 0in /  0.0mm 0.00 W/m2
02:09 70.5 °F /  21.4 °C 61.5 °F /  16.4 °C 30.5in /  1032.4hPa WSW 6mph /  9.7km/h 10.7mph /  17.2km/h 73% 0in /  0.0mm 0.00 W/m2
02:14 70.5 °F /  21.4 °C 61.9 °F /  16.6 °C 30.5in /  1032.3hPa WSW 6.9mph /  11.1km/h 12.1mph /  19.5km/h 74% 0in /  0.0mm 0.00 W/m2
02:19 70.5 °F /  21.4 °C 61.9 °F /  16.6 °C 30.5in /  1032.4hPa SW 5.4mph /  8.7km/h 13mph /  20.9km/h 74% 0in /  0.0mm 0.00 W/m2
02:24 70.5 °F /  21.4 °C 62.2 °F /  16.8 °C 30.5in /  1032.5hPa WSW 5.4mph /  8.7km/h 13mph /  20.9km/h 75% 0in /  0.0mm 0.00 W/m2
02:29 70.3 °F /  21.3 °C 61.7 °F /  16.5 °C 30.5in /  1032.3hPa WSW 5.4mph /  8.7km/h 13mph /  20.9km/h 74% 0in /  0.0mm 0.00 W/m2
02:34 70.3 °F /  21.3 °C 62.1 °F /  16.7 °C 30.5in /  1032.1hPa West 6.9mph /  11.1km/h 11.4mph /  18.3km/h 75% 0in /  0.0mm 0.00 W/m2
02:39 70.2 °F /  21.2 °C 62.2 °F /  16.8 °C 30.5in /  1032.2hPa WNW 4.5mph /  7.2km/h 11.4mph /  18.3km/h 76% 0in /  0.0mm 0.00 W/m2
02:44 70.2 °F /  21.2 °C 62.6 °F /  17.0 °C 30.5in /  1032.2hPa WSW 4.5mph /  7.2km/h 11.4mph /  18.3km/h 77% 0in /  0.0mm 0.00 W/m2
02:49 70.2 °F /  21.2 °C 63 °F /  17.2 °C 30.5in /  1032.2hPa WSW 5.4mph /  8.7km/h 9.2mph /  14.8km/h 78% 0in /  0.0mm 0.00 W/m2
02:54 70 °F /  21.1 °C 62.8 °F /  17.1 °C 30.5in /  1032.2hPa SW 7.6mph /  12.2km/h 12.1mph /  19.5km/h 78% 0in /  0.0mm 0.00 W/m2
02:59 70.2 °F /  21.2 °C 64 °F /  17.8 °C 30.5in /  1032.2hPa SSW 6mph /  9.7km/h 12.1mph /  19.5km/h 81% 0in /  0.0mm 0.00 W/m2
03:04 69.8 °F /  21.0 °C 61.5 °F /  16.4 °C 30.5in /  1032.5hPa SE 5.4mph /  8.7km/h 13mph /  20.9km/h 75% 0in /  0.0mm 0.00 W/m2
03:09 69.8 °F /  21.0 °C 60.4 °F /  15.8 °C 30.5in /  1032.3hPa ESE 9.2mph /  14.8km/h 13mph /  20.9km/h 72% 0in /  0.0mm 0.00 W/m2
03:14 69.8 °F /  21.0 °C 60.8 °F /  16.0 °C 30.5in /  1032.3hPa WNW 8.3mph /  13.4km/h 13mph /  20.9km/h 73% 0in /  0.0mm 0.00 W/m2
03:19 69.8 °F /  21.0 °C 61.2 °F /  16.2 °C 30.5in /  1032.4hPa NW 9.2mph /  14.8km/h 13mph /  20.9km/h 74% 0in /  0.0mm 0.00 W/m2
03:24 69.6 °F /  20.9 °C 61.3 °F /  16.3 °C 30.5in /  1032.3hPa WNW 6mph /  9.7km/h 11.4mph /  18.3km/h 75% 0in /  0.0mm 0.00 W/m2
03:29 69.6 °F /  20.9 °C 61.3 °F /  16.3 °C 30.5in /  1032.4hPa West 3.8mph /  6.1km/h 11.4mph /  18.3km/h 75% 0in /  0.0mm 0.00 W/m2
03:34 69.6 °F /  20.9 °C 61.3 °F /  16.3 °C 30.5in /  1032.3hPa WSW 6.9mph /  11.1km/h 12.1mph /  19.5km/h 75% 0in /  0.0mm 0.00 W/m2
03:39 69.6 °F /  20.9 °C 61.7 °F /  16.5 °C 30.5in /  1032.3hPa West 6.9mph /  11.1km/h 12.1mph /  19.5km/h 76% 0in /  0.0mm 0.00 W/m2
03:44 69.6 °F /  20.9 °C 63.1 °F /  17.3 °C 30.5in /  1032.3hPa NW 6mph /  9.7km/h 9.2mph /  14.8km/h 80% 0in /  0.0mm 0.00 W/m2
03:49 69.6 °F /  20.9 °C 63.9 °F /  17.7 °C 30.5in /  1032.2hPa WNW 6.9mph /  11.1km/h 9.2mph /  14.8km/h 82% 0in /  0.0mm 0.00 W/m2
03:54 69.6 °F /  20.9 °C 64.2 °F /  17.9 °C 30.5in /  1032.4hPa West 6mph /  9.7km/h 10.7mph /  17.2km/h 83% 0in /  0.0mm 0.00 W/m2
03:59 69.6 °F /  20.9 °C 64.2 °F /  17.9 °C 30.5in /  1032.4hPa West 6mph /  9.7km/h 12.1mph /  19.5km/h 83% 0in /  0.0mm 0.00 W/m2
04:19 69.1 °F /  20.6 °C 64.4 °F /  18.0 °C 30.5in /  1032.5hPa NNW 4.5mph /  7.2km/h 10.7mph /  17.2km/h 85% 0in /  0.0mm 0.00 W/m2
04:24 69.1 °F /  20.6 °C 64.4 °F /  18.0 °C 30.5in /  1032.5hPa North 6mph /  9.7km/h 13mph /  20.9km/h 85% 0in /  0.0mm 0.00 W/m2
04:29 69.1 °F /  20.6 °C 64.8 °F /  18.2 °C 30.5in /  1032.5hPa West 4.5mph /  7.2km/h 13mph /  20.9km/h 86% 0in /  0.0mm 0.00 W/m2
04:34 69.1 °F /  20.6 °C 64.8 °F /  18.2 °C 30.5in /  1032.6hPa WSW 4.5mph /  7.2km/h 11.4mph /  18.3km/h 86% 0in /  0.0mm 0.00 W/m2
04:39 68.9 °F /  20.5 °C 64.9 °F /  18.3 °C 30.5in /  1032.6hPa NW 3.1mph /  5.0km/h 11.4mph /  18.3km/h 87% 0in /  0.0mm 0.00 W/m2
04:44 68.5 °F /  20.3 °C 64.6 °F /  18.1 °C 30.5in /  1032.7hPa North 1.6mph /  2.6km/h 9.2mph /  14.8km/h 87% 0in /  0.0mm 0.00 W/m2
04:49 68.4 °F /  20.2 °C 64.4 °F /  18.0 °C 30.5in /  1032.6hPa SSE 2.2mph /  3.5km/h 7.6mph /  12.2km/h 87% 0in /  0.0mm 0.00 W/m2
04:54 68.4 °F /  20.2 °C 64.8 °F /  18.2 °C 30.5in /  1032.8hPa South 3.8mph /  6.1km/h 7.6mph /  12.2km/h 88% 0in /  0.0mm 0.00 W/m2
04:59 68.2 °F /  20.1 °C 64.6 °F /  18.1 °C 30.5in /  1032.7hPa SW 3.1mph /  5.0km/h 7.6mph /  12.2km/h 88% 0in /  0.0mm 0.00 W/m2
05:04 68.2 °F /  20.1 °C 64.6 °F /  18.1 °C 30.5in /  1032.9hPa East 3.1mph /  5.0km/h 7.6mph /  12.2km/h 88% 0in /  0.0mm 0.00 W/m2
05:09 68.2 °F /  20.1 °C 64.6 °F /  18.1 °C 30.5in /  1033.0hPa NNE 3.1mph /  5.0km/h 7.6mph /  12.2km/h 88% 0in /  0.0mm 0.00 W/m2
05:14 68.2 °F /  20.1 °C 64.6 °F /  18.1 °C 30.5in /  1032.8hPa ENE 4.5mph /  7.2km/h 6.9mph /  11.1km/h 88% 0in /  0.0mm 0.00 W/m2
05:19 68.4 °F /  20.2 °C 64.8 °F /  18.2 °C 30.5in /  1033.0hPa WNW 2.2mph /  3.5km/h 6.9mph /  11.1km/h 88% 0in /  0.0mm 0.00 W/m2
05:24 68.5 °F /  20.3 °C 64.6 °F /  18.1 °C 30.5in /  1032.8hPa West 3.1mph /  5.0km/h 6.9mph /  11.1km/h 87% 0in /  0.0mm 0.00 W/m2
05:29 68.5 °F /  20.3 °C 64.6 °F /  18.1 °C 30.5in /  1033.0hPa West 3.8mph /  6.1km/h 6.9mph /  11.1km/h 87% 0in /  0.0mm 0.00 W/m2
05:34 68.5 °F /  20.3 °C 64.6 °F /  18.1 °C 30.5in /  1033.2hPa West 1.6mph /  2.6km/h 7.6mph /  12.2km/h 87% 0in /  0.0mm 0.00 W/m2
05:39 68.5 °F /  20.3 °C 64.6 °F /  18.1 °C 30.5in /  1033.3hPa West 2.2mph /  3.5km/h 7.6mph /  12.2km/h 87% 0in /  0.0mm 0.00 W/m2
05:44 68.5 °F /  20.3 °C 64.6 °F /  18.1 °C 30.5in /  1033.2hPa WSW 4.5mph /  7.2km/h 6mph /  9.7km/h 87% 0in /  0.0mm 0.00 W/m2
05:49 68.2 °F /  20.1 °C 64.6 °F /  18.1 °C 30.5in /  1033.3hPa WSW 6.9mph /  11.1km/h 10.7mph /  17.2km/h 88% 0in /  0.0mm 0.00 W/m2
05:54 67.1 °F /  19.5 °C 64 °F /  17.8 °C 30.5in /  1033.3hPa SW 9.2mph /  14.8km/h 13.6mph /  21.9km/h 90% 0in /  0.0mm 0.00 W/m2
05:59 66.7 °F /  19.3 °C 64.4 °F /  18.0 °C 30.5in /  1033.4hPa SW 5.4mph /  8.7km/h 13.6mph /  21.9km/h 92% 0in /  0.0mm 0.00 W/m2
06:04 66.6 °F /  19.2 °C 64.8 °F /  18.2 °C 30.5in /  1033.4hPa SW 5.4mph /  8.7km/h 10.7mph /  17.2km/h 94% 0in /  0.0mm 0.00 W/m2
06:09 66.2 °F /  19.0 °C 64.4 °F /  18.0 °C 30.5in /  1033.5hPa SW 4.5mph /  7.2km/h 10.7mph /  17.2km/h 94% 0in /  0.0mm 0.00 W/m2
06:14 66.2 °F /  19.0 °C 64.8 °F /  18.2 °C 30.5in /  1033.5hPa SW 4.5mph /  7.2km/h 12.1mph /  19.5km/h 95% 0in /  0.0mm 1.00 W/m2
06:19 66 °F /  18.9 °C 65.1 °F /  18.4 °C 30.5in /  1033.5hPa SW 10.7mph /  17.2km/h 15.2mph /  24.5km/h 97% 0in /  0.0mm 3.00 W/m2
06:24 65.5 °F /  18.6 °C 64.6 °F /  18.1 °C 30.5in /  1033.6hPa SW 6.9mph /  11.1km/h 15.2mph /  24.5km/h 97% 0in /  0.0mm 2.00 W/m2
06:29 64.9 °F /  18.3 °C 64 °F /  17.8 °C 30.5in /  1033.4hPa WSW 6mph /  9.7km/h 15.2mph /  24.5km/h 97% 0in /  0.0mm 2.00 W/m2
06:34 64.4 °F /  18.0 °C 63.7 °F /  17.6 °C 30.5in /  1033.5hPa WSW 7.6mph /  12.2km/h 12.1mph /  19.5km/h 97% 0in /  0.0mm 1.00 W/m2
06:39 64 °F /  17.8 °C 63 °F /  17.2 °C 30.5in /  1033.6hPa WSW 6.9mph /  11.1km/h 13.6mph /  21.9km/h 96% 0.02in /  0.5mm 1.00 W/m2
06:44 63.5 °F /  17.5 °C 62.8 °F /  17.1 °C 30.5in /  1033.7hPa West 9.2mph /  14.8km/h 13.6mph /  21.9km/h 97% 0.06in /  1.5mm 6.00 W/m2
06:49 63.1 °F /  17.3 °C 62.2 °F /  16.8 °C 30.5in /  1033.8hPa WNW 3.1mph /  5.0km/h 13mph /  20.9km/h 97% 0.11in /  2.8mm 4.00 W/m2
07:09 63 °F /  17.2 °C 62.1 °F /  16.7 °C 30.5in /  1034.2hPa North 5.4mph /  8.7km/h 9.8mph /  15.8km/h 97% 0.13in /  3.3mm 6.00 W/m2
07:14 62.8 °F /  17.1 °C 61.9 °F /  16.6 °C 30.6in /  1034.5hPa North 3.8mph /  6.1km/h 9.8mph /  15.8km/h 97% 0.13in /  3.3mm 13.00 W/m2
07:19 62.6 °F /  17.0 °C 61.9 °F /  16.6 °C 30.5in /  1034.4hPa Calm   9.2mph /  14.8km/h 97% 0.17in /  4.3mm 18.00 W/m2
07:24 62.4 °F /  16.9 °C 61.9 °F /  16.6 °C 30.5in /  1034.4hPa NW 1.6mph /  2.6km/h 7.6mph /  12.2km/h 98% 0.19in /  4.8mm 21.00 W/m2
07:29 62.4 °F /  16.9 °C 61.9 °F /  16.6 °C 30.6in /  1034.5hPa Calm   5.4mph /  8.7km/h 98% 0.19in /  4.8mm 17.00 W/m2
07:34 62.4 °F /  16.9 °C 61.9 °F /  16.6 °C 30.6in /  1034.5hPa West 1.6mph /  2.6km/h 4.5mph /  7.2km/h 98% 0.2in /  5.1mm 24.00 W/m2
07:39 62.2 °F /  16.8 °C 61.7 °F /  16.5 °C 30.5in /  1034.4hPa West 3.1mph /  5.0km/h 5.4mph /  8.7km/h 98% 0.19in /  4.8mm 38.00 W/m2
07:44 62.1 °F /  16.7 °C 61.5 °F /  16.4 °C 30.6in /  1034.5hPa Calm   5.4mph /  8.7km/h 98% 0.17in /  4.3mm 37.00 W/m2
07:49 62.1 °F /  16.7 °C 61.5 °F /  16.4 °C 30.6in /  1034.7hPa WNW 4.5mph /  7.2km/h 6.9mph /  11.1km/h 98% 0.12in /  3.0mm 61.00 W/m2
07:54 62.1 °F /  16.7 °C 61.5 °F /  16.4 °C 30.6in /  1034.6hPa NW 4.5mph /  7.2km/h 8.3mph /  13.4km/h 98% 0.12in /  3.0mm 75.00 W/m2
07:59 62.1 °F /  16.7 °C 61.5 °F /  16.4 °C 30.6in /  1034.7hPa NW 6mph /  9.7km/h 9.2mph /  14.8km/h 98% 0.13in /  3.3mm 82.00 W/m2
08:04 62.1 °F /  16.7 °C 61.5 °F /  16.4 °C 30.6in /  1034.7hPa NNW 5.4mph /  8.7km/h 9.8mph /  15.8km/h 98% 0.11in /  2.8mm 102.00 W/m2
08:09 62.2 °F /  16.8 °C 61.7 °F /  16.5 °C 30.6in /  1034.7hPa NNW 4.5mph /  7.2km/h 9.8mph /  15.8km/h 98% 0.11in /  2.8mm 98.00 W/m2
08:14 62.4 °F /  16.9 °C 61.9 °F /  16.6 °C 30.6in /  1035.0hPa NNW 3.8mph /  6.1km/h 9.8mph /  15.8km/h 98% 0.11in /  2.8mm 64.00 W/m2
08:19 62.4 °F /  16.9 °C 61.9 °F /  16.6 °C 30.6in /  1034.9hPa NW 5.4mph /  8.7km/h 8.3mph /  13.4km/h 98% 0.07in /  1.8mm 65.00 W/m2
08:24 62.6 °F /  17.0 °C 61.9 °F /  16.6 °C 30.6in /  1034.8hPa Calm   8.3mph /  13.4km/h 97% 0.05in /  1.3mm 74.00 W/m2
08:29 62.8 °F /  17.1 °C 61.9 °F /  16.6 °C 30.6in /  1034.9hPa WNW 2.2mph /  3.5km/h 8.3mph /  13.4km/h 97% 0.04in /  1.0mm 73.00 W/m2
08:34 62.6 °F /  17.0 °C 61.9 °F /  16.6 °C 30.6in /  1034.9hPa West 4.5mph /  7.2km/h 6.9mph /  11.1km/h 97% 0.04in /  1.0mm 92.00 W/m2
08:39 62.8 °F /  17.1 °C 61.9 °F /  16.6 °C 30.6in /  1035.1hPa West 1.6mph /  2.6km/h 6.9mph /  11.1km/h 97% 0.02in /  0.5mm 76.00 W/m2
08:44 62.6 °F /  17.0 °C 61.9 °F /  16.6 °C 30.6in /  1035.3hPa NW 1.6mph /  2.6km/h 3.8mph /  6.1km/h 97% 0.01in /  0.3mm 58.00 W/m2
08:49 62.4 °F /  16.9 °C 61.9 °F /  16.6 °C 30.6in /  1035.2hPa NNW 3.8mph /  6.1km/h 6mph /  9.7km/h 98% 0.01in /  0.3mm 76.00 W/m2
08:54 62.4 °F /  16.9 °C 61.9 °F /  16.6 °C 30.6in /  1035.2hPa NNW 3.8mph /  6.1km/h 6mph /  9.7km/h 98% 0.01in /  0.3mm 103.00 W/m2
08:59 62.6 °F /  17.0 °C 61.9 °F /  16.6 °C 30.6in /  1035.2hPa NNW 3.1mph /  5.0km/h 6mph /  9.7km/h 97% 0in /  0.0mm 107.00 W/m2
09:04 62.8 °F /  17.1 °C 61.9 °F /  16.6 °C 30.6in /  1035.2hPa Calm   5.4mph /  8.7km/h 97% 0in /  0.0mm 103.00 W/m2
09:09 62.8 °F /  17.1 °C 61.9 °F /  16.6 °C 30.6in /  1035.3hPa NW 0.7mph /  1.1km/h 3.8mph /  6.1km/h 97% 0in /  0.0mm 104.00 W/m2
09:14 63.1 °F /  17.3 °C 62.2 °F /  16.8 °C 30.6in /  1035.2hPa Calm   3.8mph /  6.1km/h 97% 0in /  0.0mm 104.00 W/m2
09:19 63.1 °F /  17.3 °C 62.2 °F /  16.8 °C 30.6in /  1035.2hPa Calm   2.2mph /  3.5km/h 97% 0in /  0.0mm 82.00 W/m2
09:24 63.1 °F /  17.3 °C 62.2 °F /  16.8 °C 30.6in /  1035.3hPa Calm   1.6mph /  2.6km/h 97% 0in /  0.0mm 81.00 W/m2
09:29 63 °F /  17.2 °C 62.1 °F /  16.7 °C 30.6in /  1035.4hPa Calm   3.1mph /  5.0km/h 97% 0in /  0.0mm 84.00 W/m2
09:34 62.8 °F /  17.1 °C 61.9 °F /  16.6 °C 30.6in /  1035.5hPa NNW 3.1mph /  5.0km/h 3.8mph /  6.1km/h 97% 0.01in /  0.3mm 81.00 W/m2
09:39 62.8 °F /  17.1 °C 61.9 °F /  16.6 °C 30.6in /  1035.6hPa Calm   3.8mph /  6.1km/h 97% 0.01in /  0.3mm 53.00 W/m2
09:44 62.6 °F /  17.0 °C 61.9 °F /  16.6 °C 30.6in /  1035.5hPa NNW 3.1mph /  5.0km/h 3.8mph /  6.1km/h 97% 0.02in /  0.5mm 63.00 W/m2
09:49 62.2 °F /  16.8 °C 61.7 °F /  16.5 °C 30.6in /  1035.6hPa NNW 3.8mph /  6.1km/h 5.4mph /  8.7km/h 98% 0.05in /  1.3mm 105.00 W/m2
09:54 62.2 °F /  16.8 °C 61.7 °F /  16.5 °C 30.6in /  1035.6hPa NNW 3.1mph /  5.0km/h 6mph /  9.7km/h 98% 0.05in /  1.3mm 75.00 W/m2
09:59 62.6 °F /  17.0 °C 61.9 °F /  16.6 °C 30.2in /  1023.5hPa North 3.1mph /  5.0km/h 6mph /  9.7km/h 97% 0.06in /  1.5mm 84.00 W/m2
10:04 62.4 °F /  16.9 °C 61.9 °F /  16.6 °C 30.2in /  1023.3hPa NNW 0.7mph /  1.1km/h 4.5mph /  7.2km/h 98% 0.07in /  1.8mm 74.00 W/m2
10:09 62.6 °F /  17.0 °C 61.9 °F /  16.6 °C 30.2in /  1023.6hPa NNW 0.7mph /  1.1km/h 4.5mph /  7.2km/h 97% 0.08in /  2.0mm 69.00 W/m2
10:14 62.8 °F /  17.1 °C 61.9 °F /  16.6 °C 30.2in /  1023.5hPa Calm   4.5mph /  7.2km/h 97% 0.08in /  2.0mm 81.00 W/m2
10:19 62.6 °F /  17.0 °C 61.9 °F /  16.6 °C 30.2in /  1023.5hPa NNW 3.8mph /  6.1km/h 5.4mph /  8.7km/h 97% 0.09in /  2.3mm 112.00 W/m2
10:24 62.6 °F /  17.0 °C 61.9 °F /  16.6 °C 30.2in /  1023.5hPa Calm   5.4mph /  8.7km/h 97% 0.11in /  2.8mm 86.00 W/m2
10:29 63 °F /  17.2 °C 62.1 °F /  16.7 °C 30.2in /  1023.6hPa NW 3.1mph /  5.0km/h 5.4mph /  8.7km/h 97% 0.11in /  2.8mm 95.00 W/m2
10:34 62.8 °F /  17.1 °C 61.9 °F /  16.6 °C 30.2in /  1023.6hPa NW 3.1mph /  5.0km/h 5.4mph /  8.7km/h 97% 0.09in /  2.3mm 126.00 W/m2
10:39 63 °F /  17.2 °C 62.1 °F /  16.7 °C 30.2in /  1023.6hPa NW 1.6mph /  2.6km/h 4.5mph /  7.2km/h 97% 0.09in /  2.3mm 128.00 W/m2
10:44 63.3 °F /  17.4 °C 62.4 °F /  16.9 °C 30.2in /  1023.4hPa NW 2.2mph /  3.5km/h 4.5mph /  7.2km/h 97% 0.08in /  2.0mm 143.00 W/m2
10:49 63.5 °F /  17.5 °C 62.8 °F /  17.1 °C 30.2in /  1023.5hPa NW 1.6mph /  2.6km/h 3.8mph /  6.1km/h 97% 0.06in /  1.5mm 132.00 W/m2
10:54 63.5 °F /  17.5 °C 62.8 °F /  17.1 °C 30.2in /  1023.5hPa NW 1.6mph /  2.6km/h 3.8mph /  6.1km/h 97% 0.06in /  1.5mm 127.00 W/m2
10:59 63.7 °F /  17.6 °C 62.8 °F /  17.1 °C 30.2in /  1023.6hPa Calm   3.8mph /  6.1km/h 97% 0.05in /  1.3mm 119.00 W/m2
11:04 63.9 °F /  17.7 °C 63 °F /  17.2 °C 30.2in /  1023.7hPa Calm   2.2mph /  3.5km/h 97% 0.04in /  1.0mm 122.00 W/m2
11:09 63.9 °F /  17.7 °C 63 °F /  17.2 °C 30.2in /  1023.6hPa Calm   3.8mph /  6.1km/h 97% 0.04in /  1.0mm 138.00 W/m2
11:14 64 °F /  17.8 °C 63.1 °F /  17.3 °C 30.2in /  1023.6hPa Calm   3.8mph /  6.1km/h 97% 0.02in /  0.5mm 173.00 W/m2
11:19 64.8 °F /  18.2 °C 64.6 °F /  18.1 °C 30.2in /  1023.5hPa Calm   3.1mph /  5.0km/h 99% 0.01in /  0.3mm 241.00 W/m2
11:24 65.8 °F /  18.8 °C 65.7 °F /  18.7 °C 30.2in /  1023.5hPa Calm     99% 0.01in /  0.3mm 240.00 W/m2
11:29 66 °F /  18.9 °C 65.8 °F /  18.8 °C 30.2in /  1023.6hPa Calm     99% 0.01in /  0.3mm 146.00 W/m2
11:34 65.8 °F /  18.8 °C 65.7 °F /  18.7 °C 30.2in /  1023.7hPa East 1.6mph /  2.6km/h 3.1mph /  5.0km/h 99% 0.01in /  0.3mm 167.00 W/m2
11:39 66.2 °F /  19.0 °C 65.8 °F /  18.8 °C 30.2in /  1023.8hPa ESE 1.6mph /  2.6km/h 6.9mph /  11.1km/h 99% 0.01in /  0.3mm 240.00 W/m2
11:44 66.2 °F /  19.0 °C 65.8 °F /  18.8 °C 30.2in /  1023.8hPa East 6.9mph /  11.1km/h 13mph /  20.9km/h 99% 0.01in /  0.3mm 294.00 W/m2
11:49 66.9 °F /  19.4 °C 66 °F /  18.9 °C 30.2in /  1023.9hPa East 4.5mph /  7.2km/h 13mph /  20.9km/h 97% 0.01in /  0.3mm 307.00 W/m2
11:54 67.8 °F /  19.9 °C 66 °F /  18.9 °C 30.2in /  1023.9hPa ESE 11.4mph /  18.3km/h 15.9mph /  25.6km/h 94% 0.01in /  0.3mm 279.00 W/m2
11:59 68 °F /  20.0 °C 64.2 °F /  17.9 °C 30.2in /  1024.0hPa ESE 6mph /  9.7km/h 15.9mph /  25.6km/h 88% 0.01in /  0.3mm 286.00 W/m2
12:04 68.4 °F /  20.2 °C 64.4 °F /  18.0 °C 30.2in /  1023.9hPa ESE 9.2mph /  14.8km/h 15.9mph /  25.6km/h 87% 0.01in /  0.3mm 309.00 W/m2
12:09 68.4 °F /  20.2 °C 64 °F /  17.8 °C 30.2in /  1024.0hPa ESE 6.9mph /  11.1km/h 15.9mph /  25.6km/h 86% 0in /  0.0mm 328.00 W/m2
12:14 68.4 °F /  20.2 °C 64 °F /  17.8 °C 30.2in /  1024.0hPa SE 5.4mph /  8.7km/h 15.9mph /  25.6km/h 86% 0in /  0.0mm 273.00 W/m2
12:19 68.4 °F /  20.2 °C 64 °F /  17.8 °C 30.2in /  1024.2hPa SE 10.7mph /  17.2km/h 14.5mph /  23.3km/h 86% 0in /  0.0mm 237.00 W/m2
12:21 68.2 °F /  20.1 °C 63.9 °F /  17.7 °C 30.2in /  1024.1hPa SE 6.9mph /  11.1km/h 14.5mph /  23.3km/h 86% 0in /  0.0mm 247.00 W/m2
12:39 67.5 °F /  19.7 °C 64 °F /  17.8 °C 30.2in /  1024.2hPa ESE 5.4mph /  8.7km/h 11.4mph /  18.3km/h 89% 0in /  0.0mm 246.00 W/m2
12:44 67.5 °F /  19.7 °C 63.9 °F /  17.7 °C 30.2in /  1024.2hPa ESE 3.8mph /  6.1km/h 10.7mph /  17.2km/h 88% 0in /  0.0mm 266.00 W/m2
12:49 68.2 °F /  20.1 °C 64.2 °F /  17.9 °C 30.2in /  1024.1hPa East 3.1mph /  5.0km/h 8.3mph /  13.4km/h 87% 0in /  0.0mm 300.00 W/m2
12:54 68.7 °F /  20.4 °C 64.4 °F /  18.0 °C 30.2in /  1024.1hPa East 5.4mph /  8.7km/h 7.6mph /  12.2km/h 86% 0in /  0.0mm 223.00 W/m2
12:59 68.5 °F /  20.3 °C 63.9 °F /  17.7 °C 30.2in /  1024.2hPa East 3.1mph /  5.0km/h 9.2mph /  14.8km/h 85% 0in /  0.0mm 245.00 W/m2
13:04 68.7 °F /  20.4 °C 63.7 °F /  17.6 °C 30.2in /  1024.2hPa ESE 4.5mph /  7.2km/h 12.1mph /  19.5km/h 84% 0in /  0.0mm 255.00 W/m2
13:09 68.9 °F /  20.5 °C 63.9 °F /  17.7 °C 30.2in /  1024.1hPa ESE 4.5mph /  7.2km/h 12.1mph /  19.5km/h 84% 0in /  0.0mm 230.00 W/m2
13:14 68.9 °F /  20.5 °C 63.9 °F /  17.7 °C 30.2in /  1024.0hPa East 4.5mph /  7.2km/h 9.8mph /  15.8km/h 84% 0in /  0.0mm 195.00 W/m2
13:19 69.1 °F /  20.6 °C 64 °F /  17.8 °C 30.2in /  1024.0hPa East 3.1mph /  5.0km/h 7.6mph /  12.2km/h 84% 0in /  0.0mm 172.00 W/m2
13:24 68.5 °F /  20.3 °C 63.9 °F /  17.7 °C 30.2in /  1024.1hPa East 5.4mph /  8.7km/h 10.7mph /  17.2km/h 85% 0in /  0.0mm 150.00 W/m2
13:29 67.8 °F /  19.9 °C 63.9 °F /  17.7 °C 30.2in /  1024.1hPa East 1.6mph /  2.6km/h 10.7mph /  17.2km/h 87% 0in /  0.0mm 125.00 W/m2
13:34 67.6 °F /  19.8 °C 64 °F /  17.8 °C 30.2in /  1024.0hPa East 2.2mph /  3.5km/h 9.2mph /  14.8km/h 88% 0in /  0.0mm 190.00 W/m2
13:39 68 °F /  20.0 °C 63.7 °F /  17.6 °C 30.2in /  1024.1hPa ESE 5.4mph /  8.7km/h 9.8mph /  15.8km/h 86% 0in /  0.0mm 252.00 W/m2
13:44 68.4 °F /  20.2 °C 63 °F /  17.2 °C 30.2in /  1024.1hPa ESE 6mph /  9.7km/h 10.7mph /  17.2km/h 83% 0in /  0.0mm 260.00 W/m2
13:49 68.9 °F /  20.5 °C 62.4 °F /  16.9 °C 30.2in /  1024.1hPa ESE 6mph /  9.7km/h 11.4mph /  18.3km/h 80% 0in /  0.0mm 275.00 W/m2
13:54 69.3 °F /  20.7 °C 61.9 °F /  16.6 °C 30.2in /  1024.2hPa ESE 6mph /  9.7km/h 12.1mph /  19.5km/h 77% 0in /  0.0mm 291.00 W/m2
13:59 69.4 °F /  20.8 °C 61.2 °F /  16.2 °C 30.2in /  1024.1hPa SE 9.2mph /  14.8km/h 13mph /  20.9km/h 75% 0in /  0.0mm 335.00 W/m2
14:04 69.8 °F /  21.0 °C 61.5 °F /  16.4 °C 30.2in /  1024.1hPa SE 6mph /  9.7km/h 13mph /  20.9km/h 75% 0in /  0.0mm 356.00 W/m2
14:09 70.7 °F /  21.5 °C 62.4 °F /  16.9 °C 30.2in /  1024.1hPa ESE 6mph /  9.7km/h 12.1mph /  19.5km/h 75% 0in /  0.0mm 346.00 W/m2
14:14 70.7 °F /  21.5 °C 61.5 °F /  16.4 °C 30.2in /  1024.2hPa East 4.5mph /  7.2km/h 13mph /  20.9km/h 73% 0in /  0.0mm 332.00 W/m2
14:19 70.9 °F /  21.6 °C 61.9 °F /  16.6 °C 30.2in /  1024.1hPa ESE 4.5mph /  7.2km/h 13mph /  20.9km/h 73% 0in /  0.0mm 330.00 W/m2
14:24 70.7 °F /  21.5 °C 61.5 °F /  16.4 °C 30.2in /  1024.1hPa SE 8.3mph /  13.4km/h 15.2mph /  24.5km/h 73% 0.01in /  0.3mm 354.00 W/m2
14:29 70.5 °F /  21.4 °C 61.2 °F /  16.2 °C 30.2in /  1024.1hPa ESE 6mph /  9.7km/h 15.2mph /  24.5km/h 72% 0.01in /  0.3mm 342.00 W/m2
14:34 70.3 °F /  21.3 °C 60.4 °F /  15.8 °C 30.2in /  1024.1hPa East 10.7mph /  17.2km/h 14.5mph /  23.3km/h 71% 0.01in /  0.3mm 311.00 W/m2
14:39 70.3 °F /  21.3 °C 60.4 °F /  15.8 °C 30.2in /  1024.1hPa ESE 8.3mph /  13.4km/h 15.2mph /  24.5km/h 71% 0.01in /  0.3mm 289.00 W/m2
14:44 70.2 °F /  21.2 °C 60.3 °F /  15.7 °C 30.2in /  1024.2hPa SE 9.8mph /  15.8km/h 15.2mph /  24.5km/h 71% 0.01in /  0.3mm 304.00 W/m2
14:49 70.3 °F /  21.3 °C 60.4 °F /  15.8 °C 30.2in /  1024.1hPa ESE 6.9mph /  11.1km/h 14.5mph /  23.3km/h 71% 0.01in /  0.3mm 309.00 W/m2
14:54 70.3 °F /  21.3 °C 60.1 °F /  15.6 °C 30.2in /  1024.2hPa ESE 9.2mph /  14.8km/h 14.5mph /  23.3km/h 70% 0.01in /  0.3mm 327.00 W/m2
14:59 70.5 °F /  21.4 °C 59.5 °F /  15.3 °C 30.2in /  1024.1hPa SE 6.9mph /  11.1km/h 14.5mph /  23.3km/h 68% 0.01in /  0.3mm 318.00 W/m2
15:04 70.7 °F /  21.5 °C 60.1 °F /  15.6 °C 30.2in /  1023.9hPa SE 10.7mph /  17.2km/h 14.5mph /  23.3km/h 69% 0.01in /  0.3mm 322.00 W/m2
15:09 70.5 °F /  21.4 °C 59.9 °F /  15.5 °C 30.2in /  1024.2hPa ESE 9.2mph /  14.8km/h 15.2mph /  24.5km/h 69% 0.01in /  0.3mm 308.00 W/m2
15:14 70.5 °F /  21.4 °C 59.5 °F /  15.3 °C 30.2in /  1024.0hPa ESE 6mph /  9.7km/h 15.2mph /  24.5km/h 68% 0.01in /  0.3mm 331.00 W/m2
15:19 70.9 °F /  21.6 °C 59.4 °F /  15.2 °C 30.2in /  1024.1hPa SE 7.6mph /  12.2km/h 14.5mph /  23.3km/h 67% 0.01in /  0.3mm 411.00 W/m2
15:24 71.8 °F /  22.1 °C 59.7 °F /  15.4 °C 30.2in /  1024.2hPa SE 9.2mph /  14.8km/h 15.9mph /  25.6km/h 66% 0in /  0.0mm 826.00 W/m2
15:29 72.1 °F /  22.3 °C 59.4 °F /  15.2 °C 30.2in /  1024.2hPa SE 9.8mph /  15.8km/h 15.9mph /  25.6km/h 64% 0in /  0.0mm 478.00 W/m2
15:34 72.1 °F /  22.3 °C 60.3 °F /  15.7 °C 30.2in /  1024.0hPa ESE 8.3mph /  13.4km/h 15.9mph /  25.6km/h 66% 0in /  0.0mm 801.00 W/m2
15:39 72.1 °F /  22.3 °C 58.8 °F /  14.9 °C 30.2in /  1024.0hPa SE 9.2mph /  14.8km/h 17.4mph /  28.0km/h 63% 0in /  0.0mm 273.00 W/m2
15:44 71.1 °F /  21.7 °C 60.1 °F /  15.6 °C 30.2in /  1024.0hPa SE 5.4mph /  8.7km/h 17.4mph /  28.0km/h 68% 0in /  0.0mm 232.00 W/m2
15:49 70.3 °F /  21.3 °C 58.8 °F /  14.9 °C 30.2in /  1024.1hPa SE 6.9mph /  11.1km/h 15.9mph /  25.6km/h 67% 0in /  0.0mm 248.00 W/m2
15:54 70.2 °F /  21.2 °C 59.9 °F /  15.5 °C 30.2in /  1024.1hPa ESE 4.5mph /  7.2km/h 16.8mph /  27.0km/h 70% 0in /  0.0mm 246.00 W/m2
15:59 70.2 °F /  21.2 °C 60.6 °F /  15.9 °C 30.2in /  1024.0hPa ESE 4.5mph /  7.2km/h 16.8mph /  27.0km/h 72% 0in /  0.0mm 248.00 W/m2
16:04 70 °F /  21.1 °C 59.4 °F /  15.2 °C 30.2in /  1024.0hPa ESE 6mph /  9.7km/h 17.4mph /  28.0km/h 69% 0in /  0.0mm 262.00 W/m2
16:09 70.2 °F /  21.2 °C 59.2 °F /  15.1 °C 30.2in /  1024.0hPa ESE 5.4mph /  8.7km/h 17.4mph /  28.0km/h 68% 0in /  0.0mm 288.00 W/m2
16:14 70.5 °F /  21.4 °C 59.5 °F /  15.3 °C 30.2in /  1023.9hPa SE 9.2mph /  14.8km/h 13mph /  20.9km/h 68% 0in /  0.0mm 291.00 W/m2
16:19 70.5 °F /  21.4 °C 59.5 °F /  15.3 °C 30.2in /  1024.2hPa SE 6.9mph /  11.1km/h 13mph /  20.9km/h 68% 0in /  0.0mm 314.00 W/m2
16:24 70.9 °F /  21.6 °C 59.7 °F /  15.4 °C 30.2in /  1023.9hPa SE 10.7mph /  17.2km/h 15.9mph /  25.6km/h 68% 0in /  0.0mm 351.00 W/m2
16:29 71.1 °F /  21.7 °C 60.1 °F /  15.6 °C 30.2in /  1023.9hPa ESE 6.9mph /  11.1km/h 16.8mph /  27.0km/h 68% 0in /  0.0mm 361.00 W/m2
16:34 71.6 °F /  22.0 °C 60.1 °F /  15.6 °C 30.2in /  1024.0hPa ESE 7.6mph /  12.2km/h 16.8mph /  27.0km/h 67% 0in /  0.0mm 598.00 W/m2
16:39 72 °F /  22.2 °C 59.2 °F /  15.1 °C 30.2in /  1023.9hPa ESE 7.6mph /  12.2km/h 14.5mph /  23.3km/h 64% 0in /  0.0mm 324.00 W/m2
16:44 71.4 °F /  21.9 °C 60.3 °F /  15.7 °C 30.2in /  1023.8hPa ESE 9.2mph /  14.8km/h 14.5mph /  23.3km/h 68% 0in /  0.0mm 292.00 W/m2
16:49 71.2 °F /  21.8 °C 59.4 °F /  15.2 °C 30.2in /  1023.9hPa SE 5.4mph /  8.7km/h 14.5mph /  23.3km/h 66% 0in /  0.0mm 414.00 W/m2
16:54 72.1 °F /  22.3 °C 60.3 °F /  15.7 °C 30.2in /  1023.8hPa SE 8.3mph /  13.4km/h 15.2mph /  24.5km/h 66% 0in /  0.0mm 702.00 W/m2
16:59 72.7 °F /  22.6 °C 59.4 °F /  15.2 °C 30.2in /  1023.6hPa ESE 11.4mph /  18.3km/h 16.8mph /  27.0km/h 63% 0in /  0.0mm 398.00 W/m2
17:19 71.6 °F /  22.0 °C 58.8 °F /  14.9 °C 30.2in /  1023.5hPa ESE 5.4mph /  8.7km/h 13mph /  20.9km/h 64% 0in /  0.0mm 299.00 W/m2
17:24 72 °F /  22.2 °C 58.3 °F /  14.6 °C 30.2in /  1023.5hPa ESE 6mph /  9.7km/h 13.6mph /  21.9km/h 62% 0in /  0.0mm 281.00 W/m2
17:29 71.8 °F /  22.1 °C 58.5 °F /  14.7 °C 30.2in /  1023.5hPa ESE 9.8mph /  15.8km/h 13.6mph /  21.9km/h 63% 0in /  0.0mm 209.00 W/m2
17:34 70.7 °F /  21.5 °C 57.9 °F /  14.4 °C 30.2in /  1023.5hPa ESE 6.9mph /  11.1km/h 13mph /  20.9km/h 64% 0in /  0.0mm 184.00 W/m2
17:39 70.3 °F /  21.3 °C 57.9 °F /  14.4 °C 30.2in /  1023.6hPa SE 6mph /  9.7km/h 13mph /  20.9km/h 65% 0in /  0.0mm 196.00 W/m2
17:44 70.2 °F /  21.2 °C 58.6 °F /  14.8 °C 30.2in /  1023.4hPa SE 6.9mph /  11.1km/h 12.1mph /  19.5km/h 67% 0in /  0.0mm 156.00 W/m2
17:49 69.8 °F /  21.0 °C 58.5 °F /  14.7 °C 30.2in /  1023.5hPa ESE 8.3mph /  13.4km/h 13.6mph /  21.9km/h 67% 0in /  0.0mm 147.00 W/m2
17:54 69.4 °F /  20.8 °C 59.4 °F /  15.2 °C 30.2in /  1023.4hPa ESE 2.2mph /  3.5km/h 13.6mph /  21.9km/h 70% 0in /  0.0mm 135.00 W/m2
17:59 69.4 °F /  20.8 °C 58.8 °F /  14.9 °C 30.2in /  1023.6hPa SE 4.5mph /  7.2km/h 13mph /  20.9km/h 69% 0in /  0.0mm 122.00 W/m2
18:04 69.3 °F /  20.7 °C 59.2 °F /  15.1 °C 30.2in /  1023.3hPa ESE 8.3mph /  13.4km/h 13mph /  20.9km/h 70% 0in /  0.0mm 129.00 W/m2
18:09 68.9 °F /  20.5 °C 58.3 °F /  14.6 °C 30.2in /  1023.5hPa ESE 6.9mph /  11.1km/h 13.6mph /  21.9km/h 69% 0in /  0.0mm 124.00 W/m2
18:14 68.9 °F /  20.5 °C 59.2 °F /  15.1 °C 30.2in /  1023.5hPa ESE 8.3mph /  13.4km/h 13.6mph /  21.9km/h 71% 0in /  0.0mm 135.00 W/m2
18:19 68.9 °F /  20.5 °C 59.5 °F /  15.3 °C 30.2in /  1023.3hPa ESE 7.6mph /  12.2km/h 14.5mph /  23.3km/h 72% 0in /  0.0mm 143.00 W/m2
18:24 68.9 °F /  20.5 °C 59.2 °F /  15.1 °C 30.2in /  1023.3hPa ESE 9.2mph /  14.8km/h 14.5mph /  23.3km/h 71% 0in /  0.0mm 138.00 W/m2
18:29 68.9 °F /  20.5 °C 59.2 °F /  15.1 °C 30.2in /  1023.3hPa ESE 8.3mph /  13.4km/h 16.8mph /  27.0km/h 71% 0in /  0.0mm 129.00 W/m2
18:34 68.7 °F /  20.4 °C 59 °F /  15.0 °C 30.2in /  1023.2hPa ESE 7.6mph /  12.2km/h 16.8mph /  27.0km/h 71% 0in /  0.0mm 135.00 W/m2
18:39 68.5 °F /  20.3 °C 59.2 °F /  15.1 °C 30.2in /  1023.3hPa ESE 9.2mph /  14.8km/h 15.2mph /  24.5km/h 72% 0in /  0.0mm 124.00 W/m2
18:44 68.4 °F /  20.2 °C 59 °F /  15.0 °C 30.2in /  1023.2hPa ESE 4.5mph /  7.2km/h 17.4mph /  28.0km/h 72% 0in /  0.0mm 123.00 W/m2
18:49 68.4 °F /  20.2 °C 59.4 °F /  15.2 °C 30.2in /  1023.2hPa ESE 7.6mph /  12.2km/h 17.4mph /  28.0km/h 73% 0in /  0.0mm 123.00 W/m2
18:54 68.5 °F /  20.3 °C 59.2 °F /  15.1 °C 30.2in /  1023.4hPa ESE 9.8mph /  15.8km/h 13.6mph /  21.9km/h 72% 0in /  0.0mm 111.00 W/m2
18:59 68.4 °F /  20.2 °C 59 °F /  15.0 °C 30.2in /  1023.2hPa ESE 5.4mph /  8.7km/h 13.6mph /  21.9km/h 72% 0in /  0.0mm 104.00 W/m2
19:04 68.2 °F /  20.1 °C 58.8 °F /  14.9 °C 30.2in /  1023.5hPa ESE 3.8mph /  6.1km/h 13.6mph /  21.9km/h 72% 0in /  0.0mm 94.00 W/m2
19:09 68.2 °F /  20.1 °C 58.8 °F /  14.9 °C 30.2in /  1023.4hPa East 6.9mph /  11.1km/h 13.6mph /  21.9km/h 72% 0in /  0.0mm 85.00 W/m2
19:14 68 °F /  20.0 °C 58.6 °F /  14.8 °C 30.2in /  1023.6hPa East 3.8mph /  6.1km/h 13mph /  20.9km/h 72% 0in /  0.0mm 61.00 W/m2
19:19 67.8 °F /  19.9 °C 58.8 °F /  14.9 °C 30.2in /  1023.6hPa ESE 9.8mph /  15.8km/h 14.5mph /  23.3km/h 73% 0in /  0.0mm 50.00 W/m2
19:24 67.5 °F /  19.7 °C 58.5 °F /  14.7 °C 30.2in /  1023.7hPa East 6.9mph /  11.1km/h 14.5mph /  23.3km/h 73% 0in /  0.0mm 44.00 W/m2
19:29 67.5 °F /  19.7 °C 58.8 °F /  14.9 °C 30.2in /  1023.8hPa East 4.5mph /  7.2km/h 13.6mph /  21.9km/h 74% 0in /  0.0mm 41.00 W/m2
19:34 67.5 °F /  19.7 °C 58.8 °F /  14.9 °C 30.2in /  1023.6hPa East 7.6mph /  12.2km/h 11.4mph /  18.3km/h 74% 0in /  0.0mm 44.00 W/m2
19:39 67.3 °F /  19.6 °C 58.6 °F /  14.8 °C 30.2in /  1023.6hPa ESE 5.4mph /  8.7km/h 11.4mph /  18.3km/h 74% 0in /  0.0mm 41.00 W/m2
19:44 67.3 °F /  19.6 °C 58.6 °F /  14.8 °C 30.2in /  1023.6hPa ESE 3.8mph /  6.1km/h 10.7mph /  17.2km/h 74% 0in /  0.0mm 34.00 W/m2
19:49 67.1 °F /  19.5 °C 58.6 °F /  14.8 °C 30.2in /  1023.6hPa East 3.1mph /  5.0km/h 8.3mph /  13.4km/h 74% 0in /  0.0mm 25.00 W/m2
19:54 67.1 °F /  19.5 °C 58.6 °F /  14.8 °C 30.2in /  1023.7hPa East 4.5mph /  7.2km/h 8.3mph /  13.4km/h 74% 0in /  0.0mm 22.00 W/m2
19:59 67.1 °F /  19.5 °C 58.6 °F /  14.8 °C 30.2in /  1023.5hPa East 2.2mph /  3.5km/h 7.6mph /  12.2km/h 74% 0in /  0.0mm 21.00 W/m2
20:04 66.9 °F /  19.4 °C 58.5 °F /  14.7 °C 30.2in /  1023.6hPa East 6mph /  9.7km/h 10.7mph /  17.2km/h 74% 0in /  0.0mm 18.00 W/m2
20:09 66.7 °F /  19.3 °C 58.6 °F /  14.8 °C 30.2in /  1023.7hPa East 4.5mph /  7.2km/h 10.7mph /  17.2km/h 75% 0in /  0.0mm 13.00 W/m2
20:14 66.7 °F /  19.3 °C 58.6 °F /  14.8 °C 30.2in /  1023.7hPa ENE 3.8mph /  6.1km/h 9.2mph /  14.8km/h 75% 0in /  0.0mm 9.00 W/m2
20:19 66.7 °F /  19.3 °C 58.6 °F /  14.8 °C 30.2in /  1023.7hPa ENE 3.1mph /  5.0km/h 7.6mph /  12.2km/h 75% 0in /  0.0mm 7.00 W/m2
20:24 66.4 °F /  19.1 °C 58.6 °F /  14.8 °C 30.2in /  1023.7hPa ENE 5.4mph /  8.7km/h 7.6mph /  12.2km/h 76% 0in /  0.0mm 4.00 W/m2
20:29 66.2 °F /  19.0 °C 58.5 °F /  14.7 °C 30.2in /  1023.7hPa East 5.4mph /  8.7km/h 9.2mph /  14.8km/h 76% 0in /  0.0mm 3.00 W/m2
20:34 66.2 °F /  19.0 °C 58.5 °F /  14.7 °C 30.2in /  1023.7hPa East 6mph /  9.7km/h 9.2mph /  14.8km/h 76% 0in /  0.0mm 1.00 W/m2
20:39 66 °F /  18.9 °C 59 °F /  15.0 °C 30.2in /  1023.7hPa ENE 3.8mph /  6.1km/h 6.9mph /  11.1km/h 78% 0in /  0.0mm 0.00 W/m2
20:44 66 °F /  18.9 °C 59 °F /  15.0 °C 30.2in /  1023.9hPa ENE 3.8mph /  6.1km/h 8.3mph /  13.4km/h 78% 0in /  0.0mm 0.00 W/m2
20:49 65.8 °F /  18.8 °C 58.8 °F /  14.9 °C 30.2in /  1024.0hPa East 3.1mph /  5.0km/h 8.3mph /  13.4km/h 78% 0in /  0.0mm 0.00 W/m2
20:54 65.8 °F /  18.8 °C 58.8 °F /  14.9 °C 30.2in /  1023.9hPa ESE 3.1mph /  5.0km/h 7.6mph /  12.2km/h 78% 0in /  0.0mm 0.00 W/m2
20:59 65.8 °F /  18.8 °C 58.8 °F /  14.9 °C 30.2in /  1024.0hPa ESE 4.5mph /  7.2km/h 7.6mph /  12.2km/h 78% 0in /  0.0mm 0.00 W/m2
21:04 65.5 °F /  18.6 °C 58.5 °F /  14.7 °C 30.2in /  1023.9hPa East 3.1mph /  5.0km/h 7.6mph /  12.2km/h 78% 0in /  0.0mm 0.00 W/m2
21:09 65.5 °F /  18.6 °C 58.5 °F /  14.7 °C 30.2in /  1023.9hPa East 3.8mph /  6.1km/h 6.9mph /  11.1km/h 78% 0in /  0.0mm 0.00 W/m2
21:14 65.3 °F /  18.5 °C 58.6 °F /  14.8 °C 30.2in /  1023.9hPa East 3.1mph /  5.0km/h 6mph /  9.7km/h 79% 0in /  0.0mm 0.00 W/m2
21:19 65.3 °F /  18.5 °C 58.6 °F /  14.8 °C 30.2in /  1023.9hPa ENE 3.8mph /  6.1km/h 6mph /  9.7km/h 79% 0in /  0.0mm 0.00 W/m2
21:24 64.8 °F /  18.2 °C 58.1 °F /  14.5 °C 30.2in /  1024.0hPa East 5.4mph /  8.7km/h 8.3mph /  13.4km/h 79% 0in /  0.0mm 0.00 W/m2
21:29 64.8 °F /  18.2 °C 58.5 °F /  14.7 °C 30.2in /  1024.0hPa East 4.5mph /  7.2km/h 8.3mph /  13.4km/h 80% 0in /  0.0mm 0.00 W/m2
21:34 64.8 °F /  18.2 °C 58.5 °F /  14.7 °C 30.2in /  1023.8hPa ENE 3.1mph /  5.0km/h 7.6mph /  12.2km/h 80% 0in /  0.0mm 0.00 W/m2
21:39 64.6 °F /  18.1 °C 58.3 °F /  14.6 °C 30.2in /  1024.0hPa ENE 3.8mph /  6.1km/h 6mph /  9.7km/h 80% 0in /  0.0mm 0.00 W/m2
21:44 64.2 °F /  17.9 °C 58.3 °F /  14.6 °C 30.2in /  1023.9hPa ENE 2.2mph /  3.5km/h 5.4mph /  8.7km/h 81% 0in /  0.0mm 0.00 W/m2
21:49 64 °F /  17.8 °C 58.5 °F /  14.7 °C 30.2in /  1024.0hPa ENE 1.6mph /  2.6km/h 5.4mph /  8.7km/h 82% 0in /  0.0mm 0.00 W/m2
21:54 63.7 °F /  17.6 °C 58.1 °F /  14.5 °C 30.2in /  1024.0hPa NE 1.6mph /  2.6km/h 3.8mph /  6.1km/h 82% 0in /  0.0mm 0.00 W/m2
21:59 63.1 °F /  17.3 °C 57.9 °F /  14.4 °C 30.2in /  1024.0hPa NE 1.6mph /  2.6km/h 3.1mph /  5.0km/h 83% 0in /  0.0mm 0.00 W/m2
22:04 62.8 °F /  17.1 °C 57.6 °F /  14.2 °C 30.2in /  1024.0hPa ENE 0.7mph /  1.1km/h 3.1mph /  5.0km/h 83% 0in /  0.0mm 0.00 W/m2
22:09 62.6 °F /  17.0 °C 57.7 °F /  14.3 °C 30.2in /  1024.0hPa Calm   2.2mph /  3.5km/h 84% 0in /  0.0mm 0.00 W/m2
22:14 62.4 °F /  16.9 °C 58.3 °F /  14.6 °C 30.2in /  1023.9hPa Calm   1.6mph /  2.6km/h 86% 0in /  0.0mm 0.00 W/m2
22:19 62.2 °F /  16.8 °C 57.9 °F /  14.4 °C 30.2in /  1023.9hPa Calm     86% 0in /  0.0mm 0.00 W/m2
22:24 61.9 °F /  16.6 °C 57.9 °F /  14.4 °C 30.2in /  1023.8hPa Calm     87% 0in /  0.0mm 0.00 W/m2
22:29 61.7 °F /  16.5 °C 57.7 °F /  14.3 °C 30.2in /  1023.9hPa Calm     87% 0in /  0.0mm 0.00 W/m2
22:34 61.5 °F /  16.4 °C 57.6 °F /  14.2 °C 30.2in /  1023.9hPa Calm     87% 0in /  0.0mm 0.00 W/m2
22:39 61.3 °F /  16.3 °C 57.7 °F /  14.3 °C 30.2in /  1023.9hPa Calm     88% 0in /  0.0mm 0.00 W/m2
22:44 61.2 °F /  16.2 °C 57.9 °F /  14.4 °C 30.2in /  1023.8hPa Calm     89% 0in /  0.0mm 0.00 W/m2
22:49 61.2 °F /  16.2 °C 58.3 °F /  14.6 °C 30.2in /  1023.7hPa Calm     90% 0in /  0.0mm 0.00 W/m2
22:54 61 °F /  16.1 °C 57.9 °F /  14.4 °C 30.2in /  1023.8hPa Calm     90% 0in /  0.0mm 0.00 W/m2
22:59 60.8 °F /  16.0 °C 58.3 °F /  14.6 °C 30.2in /  1023.8hPa Calm     91% 0in /  0.0mm 0.00 W/m2
23:04 60.6 °F /  15.9 °C 58.3 °F /  14.6 °C 30.2in /  1023.6hPa Calm     92% 0in /  0.0mm 0.00 W/m2
23:09 60.4 °F /  15.8 °C 58.1 °F /  14.5 °C 30.2in /  1023.8hPa Calm     92% 0in /  0.0mm 0.00 W/m2
23:14 60.3 °F /  15.7 °C 58.3 °F /  14.6 °C 30.2in /  1023.7hPa Calm     93% 0in /  0.0mm 0.00 W/m2
23:19 59.9 °F /  15.5 °C 57.9 °F /  14.4 °C 30.2in /  1023.8hPa Calm     93% 0in /  0.0mm 0.00 W/m2
23:24 59.7 °F /  15.4 °C 57.7 °F /  14.3 °C 30.2in /  1023.7hPa Calm     93% 0in /  0.0mm 0.00 W/m2
23:29 59.5 °F /  15.3 °C 57.6 °F /  14.2 °C 30.2in /  1023.7hPa Calm     93% 0in /  0.0mm 0.00 W/m2
23:34 59.4 °F /  15.2 °C 57.6 °F /  14.2 °C 30.2in /  1023.6hPa Calm     94% 0in /  0.0mm 0.00 W/m2
23:39 59.2 °F /  15.1 °C 57.6 °F /  14.2 °C 30.2in /  1023.6hPa Calm     94% 0in /  0.0mm 0.00 W/m2
23:44 59 °F /  15.0 °C 57.6 °F /  14.2 °C 30.2in /  1023.4hPa Calm     95% 0in /  0.0mm 0.00 W/m2
23:49 59 °F /  15.0 °C 57.6 °F /  14.2 °C 30.2in /  1023.3hPa Calm     95% 0in /  0.0mm 0.00 W/m2
23:54 59 °F /  15.0 °C 57.6 °F /  14.2 °C 30.2in /  1023.4hPa Calm     95% 0in /  0.0mm 0.00 W/m2
23:57 59 °F /  15.0 °C 57.6 °F /  14.2 °C 30.2in /  1023.4hPa Calm     95% 0in /  0.0mm 0.00 W/m2
Northern Hawkes Bay. New Zealand Historic Data
Compliments of Weather Underground - 2 mb